Time;durP1;ratioP1;P1;durP2;ratioP2;P2;SDS_P1;SDS_P2;PMS_P1;PMS_P2;Temp;Humidity;BMP_temperature;BMP_pressure;BME280_temperature;BME280_humidity;BME280_pressure;Samples;Min_cycle;Max_cycle;Signal;HPM_P1;HPM_P2
2023/03/13 00:00:48;;;;;;;15.80;7.82;;;;;;;0.90;100.00;97704.63;5126495;28;20035;-73
2023/03/13 00:03:14;;;;;;;19.58;8.70;;;;;;;0.87;100.00;97697.66;5131690;27;20080;-74
2023/03/13 00:05:39;;;;;;;19.15;8.05;;;;;;;0.86;100.00;97711.72;5124423;28;20466;-73
2023/03/13 00:08:04;;;;;;;18.88;9.05;;;;;;;0.76;100.00;97696.16;5121925;27;20020;-74
2023/03/13 00:10:30;;;;;;;16.65;8.27;;;;;;;0.77;100.00;97713.69;5121994;28;20410;-74
2023/03/13 00:12:55;;;;;;;18.65;9.43;;;;;;;0.70;100.00;97714.72;5117964;28;20023;-75
2023/03/13 00:15:21;;;;;;;25.10;9.55;;;;;;;0.47;100.00;97721.28;5126228;28;20045;-74
2023/03/13 00:17:46;;;;;;;21.00;9.10;;;;;;;0.48;100.00;97738.81;5153184;27;20029;-74
2023/03/13 00:20:12;;;;;;;17.13;9.00;;;;;;;0.46;100.00;97740.59;5121724;28;20080;-74
2023/03/13 00:22:38;;;;;;;18.33;8.65;;;;;;;0.45;100.00;97740.63;5131538;27;20043;-73
2023/03/13 00:25:03;;;;;;;24.27;8.93;;;;;;;0.42;100.00;97752.09;5131639;27;20508;-74
2023/03/13 00:27:33;;;;;;;19.65;8.38;;;;;;;0.39;100.00;97749.53;5121615;28;20509;-75
2023/03/13 00:29:59;;;;;;;19.15;8.45;;;;;;;0.35;100.00;97763.63;5117727;28;20027;-74
2023/03/13 00:32:24;;;;;;;16.13;8.70;;;;;;;0.38;100.00;97758.28;5121023;28;20031;-73
2023/03/13 00:34:50;;;;;;;19.27;8.55;;;;;;;0.37;100.00;97753.91;5125988;27;20023;-73
2023/03/13 00:37:15;;;;;;;16.63;8.13;;;;;;;0.34;100.00;97755.78;5106223;27;20053;-74
2023/03/13 00:39:41;;;;;;;20.55;8.68;;;;;;;0.42;100.00;97774.91;5135261;27;20023;-74
2023/03/13 00:42:07;;;;;;;17.52;7.75;;;;;;;0.48;100.00;97780.91;5124983;27;20109;-75
2023/03/13 00:44:32;;;;;;;23.40;8.82;;;;;;;0.56;100.00;97786.03;5117007;27;20034;-72
2023/03/13 00:46:58;;;;;;;17.60;8.52;;;;;;;0.48;100.00;97778.28;5130066;27;20080;-73
2023/03/13 00:49:23;;;;;;;20.08;8.88;;;;;;;0.39;100.00;97775.81;5134750;27;20034;-74
2023/03/13 00:51:49;;;;;;;21.33;10.05;;;;;;;0.42;100.00;97794.19;5129583;27;20379;-73
2023/03/13 00:54:14;;;;;;;26.85;10.38;;;;;;;0.41;100.00;97795.06;5120435;27;20063;-74
2023/03/13 00:56:40;;;;;;;22.00;10.27;;;;;;;0.33;100.00;97793.47;5125883;27;20110;-74
2023/03/13 00:59:05;;;;;;;24.08;11.82;;;;;;;0.22;100.00;97777.00;5129318;27;20019;-74
2023/03/13 01:01:34;;;;;;;22.23;10.30;;;;;;;0.26;100.00;97800.59;5116730;27;20026;-74
2023/03/13 01:04:03;;;;;;;24.00;10.30;;;;;;;0.15;100.00;97793.81;5115122;27;20084;-76
2023/03/13 01:06:29;;;;;;;20.65;10.50;;;;;;;0.09;100.00;97792.16;5138561;27;20046;-73
2023/03/13 01:08:55;;;;;;;29.40;11.70;;;;;;;0.04;100.00;97799.22;5120610;27;20123;-73
2023/03/13 01:11:26;;;;;;;23.50;11.38;;;;;;;0.02;100.00;97803.66;5122284;27;20035;-73
2023/03/13 01:14:00;;;;;;;26.35;11.18;;;;;;;-0.04;100.00;97806.38;5134691;27;20480;-74
2023/03/13 01:16:28;;;;;;;25.00;10.70;;;;;;;-0.05;100.00;97809.91;5129041;27;20033;-73
2023/03/13 01:18:56;;;;;;;23.20;10.63;;;;;;;-0.03;100.00;97818.63;5122543;27;20106;-73
2023/03/13 01:21:23;;;;;;;23.17;11.20;;;;;;;-0.04;100.00;97820.41;5103066;27;20027;-74
2023/03/13 01:23:49;;;;;;;21.17;10.13;;;;;;;-0.15;100.00;97805.66;5125490;27;20046;-74
2023/03/13 01:26:15;;;;;;;19.60;9.13;;;;;;;-0.04;100.00;97824.78;5129011;27;20421;-74
2023/03/13 01:28:41;;;;;;;21.23;9.38;;;;;;;-0.15;100.00;97813.56;5124477;27;20022;-73
2023/03/13 01:31:27;;;;;;;20.52;8.93;;;;;;;-0.23;100.00;97820.69;5124662;27;20046;-74
2023/03/13 01:33:55;;;;;;;22.88;9.82;;;;;;;-0.22;100.00;97810.19;5124361;27;20022;-74
2023/03/13 01:36:21;;;;;;;19.27;9.77;;;;;;;-0.17;100.00;97828.50;5107089;27;20023;-74
2023/03/13 01:38:51;;;;;;;21.30;9.45;;;;;;;-0.14;100.00;97838.94;5123992;27;20023;-73
2023/03/13 01:41:17;;;;;;;18.73;8.55;;;;;;;-0.09;100.00;97840.63;5120381;27;20023;-73
2023/03/13 01:43:44;;;;;;;17.60;8.85;;;;;;;-0.10;100.00;97838.91;5133737;27;20029;-73
2023/03/13 01:46:17;;;;;;;18.30;8.93;;;;;;;-0.01;100.00;97851.91;5119632;27;20394;-74
2023/03/13 01:48:42;;;;;;;19.98;9.45;;;;;;;-0.01;100.00;97848.41;5107023;27;20019;-74
2023/03/13 01:51:16;;;;;;;18.63;8.15;;;;;;;-0.01;100.00;97858.91;5127189;27;20107;-74
2023/03/13 01:53:43;;;;;;;19.88;8.50;;;;;;;-0.04;100.00;97864.22;5124415;27;20015;-74
2023/03/13 01:56:13;;;;;;;19.27;8.38;;;;;;;-0.17;100.00;97850.38;5129528;27;20030;-74
2023/03/13 01:58:38;;;;;;;15.05;8.23;;;;;;;-0.11;100.00;97866.06;5129254;27;20030;-74
2023/03/13 02:01:05;;;;;;;17.00;8.70;;;;;;;-0.14;100.00;97868.75;5105250;27;20486;-75
2023/03/13 02:03:31;;;;;;;17.73;9.20;;;;;;;-0.22;100.00;97877.63;5122002;27;20031;-74
2023/03/13 02:05:58;;;;;;;20.38;9.75;;;;;;;-0.30;100.00;97866.34;5131248;27;20023;-74
2023/03/13 02:08:30;;;;;;;25.30;10.93;;;;;;;-0.31;100.00;97872.50;5121138;27;20431;-72
2023/03/13 02:11:18;;;;;;;23.35;10.32;;;;;;;-0.42;100.00;97862.13;5115902;27;20026;-73
2023/03/13 02:13:45;;;;;;;24.73;11.07;;;;;;;-0.47;100.00;97863.97;5108879;27;20046;-73
2023/03/13 02:16:11;;;;;;;25.30;9.68;;;;;;;-0.53;100.00;97873.69;5120669;27;20525;-73
2023/03/13 02:18:37;;;;;;;18.77;8.80;;;;;;;-0.57;100.00;97868.47;5123262;27;20039;-74
2023/03/13 02:21:40;;;;;;;18.52;9.02;;;;;;;-0.46;100.00;97875.34;5101897;27;20027;-73
2023/03/13 02:24:15;;;;;;;25.35;11.32;;;;;;;-0.38;100.00;97882.22;5140048;27;20047;-73
2023/03/13 02:26:41;;;;;;;25.27;10.65;;;;;;;-0.27;100.00;97882.94;5112334;28;20506;-73
2023/03/13 02:29:16;;;;;;;19.85;9.95;;;;;;;-0.31;100.00;97877.75;5111270;28;20032;-73
2023/03/13 02:31:45;;;;;;;19.30;10.45;;;;;;;-0.32;100.00;97892.66;5110912;28;20443;-73
2023/03/13 02:34:31;;;;;;;18.15;8.90;;;;;;;-0.31;100.00;97888.28;5111267;28;20050;-74
2023/03/13 02:36:58;;;;;;;25.85;10.68;;;;;;;-0.36;100.00;97893.56;5111038;28;20047;-73
2023/03/13 02:39:24;;;;;;;21.45;10.52;;;;;;;-0.31;100.00;97888.28;5110848;28;20031;-74
2023/03/13 02:41:50;;;;;;;24.05;9.70;;;;;;;-0.29;100.00;97895.25;5111067;28;20019;-74
2023/03/13 02:44:16;;;;;;;21.02;9.77;;;;;;;-0.27;100.00;97913.59;5110861;28;20491;-73
2023/03/13 02:46:51;;;;;;;25.83;10.65;;;;;;;-0.28;100.00;97917.13;5110677;28;20103;-74
2023/03/13 02:49:26;;;;;;;24.20;11.05;;;;;;;-0.27;100.00;97922.34;5110648;28;20533;-74
2023/03/13 02:51:53;;;;;;;22.92;10.93;;;;;;;-0.32;100.00;97918.06;5112092;28;20023;-74
2023/03/13 02:54:27;;;;;;;24.50;11.07;;;;;;;-0.30;100.00;97939.91;5110331;28;20027;-74
2023/03/13 02:56:56;;;;;;;25.50;11.18;;;;;;;-0.34;100.00;97935.63;5110488;28;20491;-74
2023/03/13 02:59:22;;;;;;;23.77;11.07;;;;;;;-0.44;100.00;97937.47;5127841;27;20054;-74
2023/03/13 03:01:51;;;;;;;25.10;11.15;;;;;;;-0.42;100.00;97933.06;5110830;28;20486;-74
2023/03/13 03:04:23;;;;;;;23.27;11.45;;;;;;;-0.46;100.00;97935.78;5093715;28;20030;-77
2023/03/13 03:06:49;;;;;;;21.42;10.93;;;;;;;-0.43;100.00;97952.34;5105496;28;20468;-77
2023/03/13 03:09:15;;;;;;;27.35;11.93;;;;;;;-0.46;100.00;97947.13;5110252;28;20475;-78
2023/03/13 03:11:41;;;;;;;24.98;10.55;;;;;;;-0.55;100.00;97934.97;5093279;28;20027;-78
2023/03/13 03:14:07;;;;;;;18.35;9.25;;;;;;;-0.53;100.00;97947.22;5110295;28;20024;-76
2023/03/13 03:16:33;;;;;;;23.67;9.75;;;;;;;-0.68;100.00;97938.63;5110030;28;20047;-78
2023/03/13 03:18:58;;;;;;;20.55;10.25;;;;;;;-0.69;100.00;97942.16;5110142;28;20124;-77
2023/03/13 03:21:24;;;;;;;17.83;8.68;;;;;;;-0.69;100.00;97950.03;5110879;28;20115;-78
2023/03/13 03:23:50;;;;;;;17.83;9.25;;;;;;;-0.70;100.00;97952.66;5124530;27;20051;-77
2023/03/13 03:26:15;;;;;;;23.42;10.52;;;;;;;-0.71;100.00;97961.44;5130486;27;20446;-77
2023/03/13 03:28:41;;;;;;;30.05;10.35;;;;;;;-0.77;100.00;97962.38;5124665;27;20022;-76
2023/03/13 03:31:09;;;;;;;19.77;8.77;;;;;;;-0.78;100.00;97951.88;5122602;27;20023;-77
2023/03/13 03:33:35;;;;;;;15.63;7.55;;;;;;;-0.82;100.00;97968.56;5093048;28;20022;-77
2023/03/13 03:36:02;;;;;;;14.98;7.25;;;;;;;-0.90;100.00;97963.41;5109760;28;20398;-78
2023/03/13 03:38:28;;;;;;;17.88;8.45;;;;;;;-0.91;100.00;97961.66;5104280;28;20110;-77
2023/03/13 03:40:53;;;;;;;26.73;9.63;;;;;;;-1.00;100.00;97968.75;5126555;28;20052;-77
2023/03/13 03:43:19;;;;;;;23.13;11.10;;;;;;;-0.92;100.00;97993.19;5121341;28;20542;-77
2023/03/13 03:45:44;;;;;;;28.02;12.15;;;;;;;-0.97;100.00;97987.09;5115357;28;20042;-77
2023/03/13 03:48:11;;;;;;;24.88;10.77;;;;;;;-0.91;100.00;98003.66;5125788;27;20058;-77
2023/03/13 03:50:36;;;;;;;28.30;11.73;;;;;;;-0.96;100.00;98005.47;5120887;27;20024;-78
2023/03/13 03:53:02;;;;;;;14.98;8.40;;;;;;;-0.94;100.00;98019.44;5122153;28;20034;-77
2023/03/13 03:55:27;;;;;;;19.77;9.65;;;;;;;-1.02;100.00;98021.28;5128844;28;20023;-77
2023/03/13 03:57:53;;;;;;;20.08;10.45;;;;;;;-1.12;100.00;98022.22;5111059;27;20529;-76
2023/03/13 04:00:18;;;;;;;15.73;8.80;;;;;;;-1.14;100.00;98039.75;5143985;27;20038;-78
2023/03/13 04:02:44;;;;;;;20.98;8.70;;;;;;;-1.15;100.00;98046.75;5120024;28;20019;-77
2023/03/13 04:05:10;;;;;;;34.80;13.60;;;;;;;-1.22;100.00;98045.03;5125764;27;20098;-77
2023/03/13 04:07:35;;;;;;;36.42;13.85;;;;;;;-1.26;100.00;98045.94;5112879;28;20023;-77
2023/03/13 04:10:02;;;;;;;74.65;23.50;;;;;;;-1.26;100.00;98053.81;5118818;27;20058;-77
2023/03/13 04:12:28;;;;;;;71.95;23.40;;;;;;;-1.33;100.00;98052.13;5122463;27;20034;-77
2023/03/13 04:14:53;;;;;;;63.00;22.52;;;;;;;-1.43;100.00;98046.94;5156386;27;20502;-77
2023/03/13 04:17:19;;;;;;;34.80;13.80;;;;;;;-1.52;100.00;98036.53;5149232;27;20027;-77
2023/03/13 04:19:44;;;;;;;30.92;13.55;;;;;;;-1.48;100.00;98056.59;5115863;27;20487;-78
2023/03/13 04:22:10;;;;;;;21.25;9.40;;;;;;;-1.66;100.00;98047.97;5129420;27;20412;-77
2023/03/13 04:24:35;;;;;;;20.30;9.05;;;;;;;-1.70;100.00;98058.50;5131513;27;20031;-76
2023/03/13 04:27:02;;;;;;;17.92;8.18;;;;;;;-1.64;100.00;98071.56;5106435;27;20029;-78
2023/03/13 04:29:28;;;;;;;18.92;9.13;;;;;;;-1.67;100.00;98072.47;5126363;27;20030;-80
2023/03/13 04:31:54;;;;;;;22.00;8.27;;;;;;;-1.61;100.00;98078.53;5099137;27;20496;-78
2023/03/13 04:34:19;;;;;;;23.23;10.07;;;;;;;-1.53;100.00;98089.84;5106691;27;20027;-78
2023/03/13 04:36:45;;;;;;;24.08;11.23;;;;;;;-1.41;100.00;98087.16;5115288;27;20027;-78
2023/03/13 04:39:11;;;;;;;30.27;12.38;;;;;;;-1.39;100.00;98082.78;5116443;27;20027;-78
2023/03/13 04:41:36;;;;;;;23.80;11.27;;;;;;;-1.36;100.00;98081.00;5133355;27;20027;-79
2023/03/13 04:44:02;;;;;;;28.38;11.20;;;;;;;-1.26;100.00;98089.69;5116862;27;20024;-79
2023/03/13 04:46:27;;;;;;;51.88;12.07;;;;;;;-1.18;100.00;98096.63;5119930;27;20023;-78
2023/03/13 04:48:53;;;;;;;31.58;11.57;;;;;;;-1.15;100.00;98093.97;5124487;27;20057;-77
2023/03/13 04:51:18;;;;;;;35.53;13.65;;;;;;;-1.06;100.00;98107.91;5116045;27;20030;-77
2023/03/13 04:53:44;;;;;;;46.42;19.27;;;;;;;-1.03;100.00;98116.63;5134630;27;20452;-77
2023/03/13 04:56:11;;;;;;;40.30;15.73;;;;;;;-0.97;100.00;98107.84;5135129;27;20023;-80
2023/03/13 04:58:36;;;;;;;33.08;14.48;;;;;;;-0.99;100.00;98104.38;5106706;27;20027;-77
2023/03/13 05:01:02;;;;;;;36.80;15.52;;;;;;;-1.11;100.00;98084.34;5109564;27;21180;-79
2023/03/13 05:03:27;;;;;;;49.60;16.20;;;;;;;-1.05;100.00;98105.28;5099975;27;20019;-79
2023/03/13 05:05:53;;;;;;;41.47;15.18;;;;;;;-1.00;100.00;98113.09;5122203;27;20039;-79
2023/03/13 05:08:18;;;;;;;39.20;15.73;;;;;;;-1.08;100.00;98100.91;5106508;27;20095;-77
2023/03/13 05:10:44;;;;;;;45.40;18.80;;;;;;;-1.02;100.00;98113.13;5126281;27;20486;-77
2023/03/13 05:13:16;;;;;;;41.88;17.73;;;;;;;-1.00;100.00;98116.63;5117616;27;20015;-78
2023/03/13 05:15:44;;;;;;;52.75;17.92;;;;;;;-1.03;100.00;98116.63;5126322;27;20019;-79
2023/03/13 05:18:10;;;;;;;52.25;21.45;;;;;;;-0.90;100.00;98126.16;5131482;27;20063;-78
2023/03/13 05:20:35;;;;;;;47.33;19.75;;;;;;;-0.33;100.00;98137.03;5102776;27;20031;-78
2023/03/13 05:23:01;;;;;;;39.55;17.80;;;;;;;0.65;100.00;98141.16;5156709;27;20122;-78
2023/03/13 05:25:26;;;;;;;50.22;21.45;;;;;;;1.90;100.00;98130.38;5133518;27;20027;-79
2023/03/13 05:27:52;;;;;;;59.15;21.00;;;;;;;3.18;100.00;98107.41;5100999;27;20387;-79
2023/03/13 05:30:18;;;;;;;45.70;18.80;;;;;;;4.27;100.00;98075.44;5115858;27;20479;-79
2023/03/13 05:32:44;;;;;;;52.85;19.20;;;;;;;5.22;97.73;98051.28;5124331;27;20402;-79
2023/03/13 05:35:09;;;;;;;45.28;18.20;;;;;;;5.90;86.28;98027.72;5098311;27;20031;-80
2023/03/13 05:37:35;;;;;;;49.35;20.63;;;;;;;6.33;79.60;98015.53;5121109;27;20121;-80
2023/03/13 05:40:00;;;;;;;49.03;22.30;;;;;;;7.08;75.73;98028.47;5113054;27;20069;-79
2023/03/13 05:42:26;;;;;;;45.72;20.15;;;;;;;7.86;70.01;98015.44;5132130;27;20105;-77
2023/03/13 05:44:52;;;;;;;36.67;14.95;;;;;;;7.71;64.62;97984.16;5123856;27;20031;-78
2023/03/13 05:47:17;;;;;;;40.10;17.23;;;;;;;7.58;67.23;97989.13;5132162;27;20023;-79
2023/03/13 05:49:43;;;;;;;38.88;15.63;;;;;;;7.74;65.00;97973.34;5127414;27;20108;-78
2023/03/13 05:52:09;;;;;;;32.42;17.48;;;;;;;8.36;62.58;97988.34;5131937;27;20418;-79
2023/03/13 05:54:34;;;;;;;46.75;18.58;;;;;;;9.11;59.37;97990.03;5133418;27;20054;-79
2023/03/13 05:57:00;;;;;;;35.97;16.65;;;;;;;9.49;56.98;97982.78;5152000;27;20035;-78
2023/03/13 05:59:25;;;;;;;38.10;15.88;;;;;;;9.72;55.80;97984.31;5133460;27;20122;-79
2023/03/13 06:01:51;;;;;;;30.15;14.90;;;;;;;9.62;55.74;97983.03;5119082;27;20167;-79
2023/03/13 06:04:16;;;;;;;34.55;15.15;;;;;;;10.13;53.74;97977.66;5115309;27;20111;-79
2023/03/13 06:06:42;;;;;;;43.17;19.67;;;;;;;10.12;53.80;97975.91;5117673;27;20117;-78
2023/03/13 06:09:09;;;;;;;41.20;18.38;;;;;;;10.20;53.54;97983.56;5132766;27;20069;-77
2023/03/13 06:11:35;;;;;;;33.85;16.67;;;;;;;10.49;52.19;97982.00;5104764;27;20119;-77
2023/03/13 06:14:00;;;;;;;34.60;16.20;;;;;;;11.03;50.99;97976.22;5119659;27;20110;-78
2023/03/13 06:16:26;;;;;;;43.75;17.92;;;;;;;10.87;50.39;97965.53;5132765;27;20037;-77
2023/03/13 06:18:51;;;;;;;48.17;20.52;;;;;;;10.34;51.07;97959.59;5165819;27;20031;-77
2023/03/13 06:21:17;;;;;;;46.78;21.95;;;;;;;10.72;50.88;97961.03;5131059;27;20463;-78
2023/03/13 06:23:42;;;;;;;56.05;25.10;;;;;;;11.51;49.65;97955.56;5124752;27;20043;-78
2023/03/13 06:26:08;;;;;;;42.45;21.83;;;;;;;11.79;47.93;97955.69;5122596;27;20022;-79
2023/03/13 06:28:33;;;;;;;48.45;24.48;;;;;;;12.10;48.05;97966.28;5130419;27;20038;-78
2023/03/13 06:31:04;;;;;;;63.55;25.10;;;;;;;12.45;47.59;97974.84;5114279;27;20119;-78
2023/03/13 06:33:29;;;;;;;55.08;25.63;;;;;;;12.01;47.41;97942.72;5096227;27;20084;-79
2023/03/13 06:35:56;;;;;;;57.85;23.27;;;;;;;11.82;47.86;97936.75;5097224;27;20516;-80
2023/03/13 06:38:22;;;;;;;51.50;22.98;;;;;;;11.74;48.43;97929.19;5129547;27;20092;-79
2023/03/13 06:40:48;;;;;;;56.03;27.60;;;;;;;11.49;48.80;97920.00;5148045;27;20080;-79
2023/03/13 06:43:13;;;;;;;42.38;20.48;;;;;;;12.01;47.55;97912.34;5165561;27;20031;-79
2023/03/13 06:45:39;;;;;;;28.67;15.00;;;;;;;12.73;45.48;97901.47;5130155;27;20084;-79
2023/03/13 06:48:04;;;;;;;37.78;16.90;;;;;;;13.43;44.45;97909.31;5110128;27;20673;-79
2023/03/13 06:50:30;;;;;;;34.83;18.08;;;;;;;13.96;43.21;97902.09;5113655;27;20080;-78
2023/03/13 06:52:56;;;;;;;38.25;16.67;;;;;;;13.49;43.06;97890.09;5125740;27;20011;-77
2023/03/13 06:55:22;;;;;;;33.13;16.92;;;;;;;13.31;43.57;97891.34;5113529;27;20023;-79
2023/03/13 06:57:51;;;;;;;45.47;21.65;;;;;;;13.69;43.21;97912.91;5105386;27;20432;-79
2023/03/13 07:00:18;;;;;;;30.80;16.45;;;;;;;13.69;43.03;97893.25;5128193;27;20027;-79
2023/03/13 07:02:44;;;;;;;27.08;13.20;;;;;;;13.95;43.00;97901.22;5131813;27;20041;-79
2023/03/13 07:05:09;;;;;;;35.53;13.82;;;;;;;14.20;42.80;97900.34;5113364;27;20110;-79
2023/03/13 07:07:35;;;;;;;21.60;10.90;;;;;;;14.41;42.17;97893.47;5113487;27;20031;-78
2023/03/13 07:10:01;;;;;;;23.55;12.13;;;;;;;14.43;41.84;97886.13;5118563;27;20050;-78
2023/03/13 07:12:26;;;;;;;16.27;10.02;;;;;;;14.22;41.11;97863.41;5121768;27;20026;-77
2023/03/13 07:14:52;;;;;;;20.17;9.70;;;;;;;14.20;42.15;97872.56;5131743;27;20031;-79
2023/03/13 07:17:17;;;;;;;16.20;9.20;;;;;;;14.60;41.10;97869.63;5131946;27;20110;-79
2023/03/13 07:19:42;;;;;;;16.27;9.18;;;;;;;14.84;40.22;97852.63;5113303;28;20109;-79
2023/03/13 07:22:08;;;;;;;18.88;9.90;;;;;;;14.92;39.93;97852.94;5131724;27;20447;-79
2023/03/13 07:24:33;;;;;;;19.15;10.60;;;;;;;14.69;40.59;97841.16;5121942;27;20119;-78
2023/03/13 07:26:59;;;;;;;24.50;12.23;;;;;;;15.45;39.34;97857.81;5130829;27;20031;-79
2023/03/13 07:29:25;;;;;;;19.23;9.45;;;;;;;15.77;38.25;97838.31;5131634;27;20035;-79
2023/03/13 07:31:50;;;;;;;18.08;9.63;;;;;;;15.62;38.15;97818.81;5132006;28;20031;-79
2023/03/13 07:34:16;;;;;;;19.25;10.18;;;;;;;15.30;38.75;97818.56;5118528;28;20023;-80
2023/03/13 07:36:42;;;;;;;20.95;10.65;;;;;;;15.43;38.46;97819.34;5104797;28;20106;-79
2023/03/13 07:39:08;;;;;;;18.38;10.80;;;;;;;15.91;38.34;97838.09;5118297;28;20019;-79
2023/03/13 07:41:33;;;;;;;17.58;11.05;;;;;;;16.05;37.67;97819.00;5096133;28;20126;-79
2023/03/13 07:43:59;;;;;;;20.77;11.15;;;;;;;16.44;36.95;97806.81;5133021;27;20372;-78
2023/03/13 07:46:24;;;;;;;19.30;10.95;;;;;;;16.61;36.97;97809.03;5100599;27;20121;-79
2023/03/13 07:48:51;;;;;;;20.20;11.18;;;;;;;16.69;36.64;97806.56;5132710;27;20098;-78
2023/03/13 07:51:22;;;;;;;18.27;10.50;;;;;;;16.38;37.27;97791.09;5134453;27;20052;-78
2023/03/13 07:53:48;;;;;;;18.45;11.40;;;;;;;16.26;37.68;97793.84;5125304;27;20394;-79
2023/03/13 07:56:15;;;;;;;24.58;12.65;;;;;;;16.67;37.35;97811.25;5111448;27;20034;-77
2023/03/13 07:58:42;;;;;;;32.85;13.20;;;;;;;16.45;37.25;97786.94;5116312;27;20508;-78
2023/03/13 08:01:19;;;;;;;17.65;10.43;;;;;;;17.07;36.19;97801.50;5094522;27;20027;-79
2023/03/13 08:03:48;;;;;;;19.80;10.30;;;;;;;16.40;37.38;97794.53;5099641;27;20043;-78
2023/03/13 08:06:15;;;;;;;17.85;10.63;;;;;;;16.51;37.68;97795.41;5109788;27;20200;-79
2023/03/13 08:08:45;;;;;;;15.68;9.25;;;;;;;16.88;37.05;97782.44;5104114;27;20071;-80
2023/03/13 08:11:15;;;;;;;80.18;49.85;;;;;;;17.52;36.19;97796.75;5150318;27;20436;-79
2023/03/13 08:13:41;;;;;;;12.38;7.07;;;;;;;17.80;34.60;97774.47;5116773;27;20027;-79
2023/03/13 08:16:15;;;;;;;9.65;6.55;;;;;;;17.27;35.39;97780.91;5099515;27;20376;-79
2023/03/13 08:18:43;;;;;;;12.90;6.13;;;;;;;16.68;34.85;97737.28;5115014;27;20027;-78
2023/03/13 08:21:11;;;;;;;8.15;5.45;;;;;;;16.69;34.26;97749.81;5133569;27;20115;-79
2023/03/13 08:23:37;;;;;;;9.07;4.93;;;;;;;16.65;33.89;97732.16;5119996;27;20039;-79
2023/03/13 08:26:17;;;;;;;12.65;5.80;;;;;;;16.76;34.17;97748.34;5140520;27;20035;-78
2023/03/13 08:28:44;;;;;;;9.85;4.40;;;;;;;15.59;34.51;97711.19;5133806;27;20027;-78
2023/03/13 08:31:15;;;;;;;9.02;4.63;;;;;;;15.25;35.95;97734.50;5116800;27;20534;-80
2023/03/13 08:33:45;;;;;;;6.75;5.30;;;;;;;15.80;35.42;97731.03;5133755;27;20034;-78
2023/03/13 08:36:25;;;;;;;8.73;5.57;;;;;;;16.75;35.38;97765.53;5134309;27;20050;-78
2023/03/13 08:38:52;;;;;;;8.45;5.38;;;;;;;16.77;34.25;97741.94;5110912;27;20087;-77
2023/03/13 08:41:21;;;;;;;7.50;5.25;;;;;;;17.27;34.11;97768.25;5134600;27;20058;-78
2023/03/13 08:43:46;;;;;;;8.35;5.68;;;;;;;19.28;31.83;97792.59;5098996;27;20031;-79
2023/03/13 08:46:13;;;;;;;9.65;5.60;;;;;;;19.85;30.77;97788.09;5116064;27;20604;-79
2023/03/13 08:48:38;;;;;;;8.55;6.13;;;;;;;20.21;29.61;97751.13;5119207;27;20516;-79
2023/03/13 08:51:09;;;;;;;9.80;5.22;;;;;;;19.91;30.13;97736.78;5134107;27;20027;-79
2023/03/13 08:53:35;;;;;;;12.73;6.00;;;;;;;20.76;29.31;97743.84;5116167;27;20096;-78
2023/03/13 08:56:19;;;;;;;12.27;6.30;;;;;;;21.42;28.49;97755.22;5115144;27;20023;-79
2023/03/13 08:58:55;;;;;;;11.85;5.90;;;;;;;20.38;29.12;97705.00;5099484;27;20410;-78
2023/03/13 09:01:23;;;;;;;10.98;5.35;;;;;;;20.67;28.93;97713.00;5106267;27;20038;-77
2023/03/13 09:03:49;;;;;;;11.73;4.97;;;;;;;18.65;30.65;97668.41;5105889;27;20068;-78
2023/03/13 09:06:14;;;;;;;13.10;5.22;;;;;;;19.51;30.09;97695.47;5115468;27;20127;-79
2023/03/13 09:08:41;;;;;;;7.88;5.28;;;;;;;19.81;29.98;97697.94;5123315;27;20019;-79
2023/03/13 09:11:12;;;;;;;8.88;5.65;;;;;;;19.85;30.03;97693.06;5115757;27;20144;-77
2023/03/13 09:13:40;;;;;;;9.23;5.67;;;;;;;19.99;30.48;97690.72;5133153;27;20011;-78
2023/03/13 09:16:08;;;;;;;9.15;6.20;;;;;;;19.27;30.62;97670.66;5120015;27;20019;-78
2023/03/13 09:18:34;;;;;;;12.57;6.95;;;;;;;19.00;30.89;97678.69;5118022;27;20019;-78
2023/03/13 09:21:00;;;;;;;12.05;6.20;;;;;;;18.67;31.53;97664.56;5099004;27;20031;-80
2023/03/13 09:23:26;;;;;;;14.77;6.80;;;;;;;18.26;32.11;97670.19;5132769;27;20039;-79
2023/03/13 09:25:53;;;;;;;9.77;5.85;;;;;;;19.41;30.77;97702.81;5132978;27;20110;-79
2023/03/13 09:28:19;;;;;;;10.57;6.40;;;;;;;19.52;30.64;97702.63;5132777;27;20019;-78
2023/03/13 09:30:44;;;;;;;7.95;5.68;;;;;;;20.49;29.77;97718.38;5115267;27;20088;-77
2023/03/13 09:33:10;;;;;;;7.88;6.25;;;;;;;21.38;29.25;97732.06;5124464;27;20022;-78
2023/03/13 09:35:38;;;;;;;8.95;5.93;;;;;;;22.18;27.95;97725.47;5116555;27;20034;-78
2023/03/13 09:38:03;;;;;;;9.75;5.80;;;;;;;21.81;28.28;97707.50;5118659;27;20079;-77
2023/03/13 09:40:29;;;;;;;13.20;5.93;;;;;;;20.73;28.59;97681.59;5124968;27;20494;-77
2023/03/13 09:42:58;;;;;;;10.45;5.68;;;;;;;20.98;29.00;97694.41;5133422;27;20403;-78
2023/03/13 09:45:33;;;;;;;7.10;5.15;;;;;;;21.26;28.15;97678.88;5125509;27;20035;-79
2023/03/13 09:48:33;;;;;;;8.68;5.07;;;;;;;23.16;26.89;97721.00;5133883;27;20021;-77
2023/03/13 09:51:09;;;;;;;8.98;5.10;;;;;;;23.69;26.44;97697.81;5098135;27;20510;-80
2023/03/13 09:53:41;;;;;;;9.20;5.60;;;;;;;24.09;25.90;97692.25;5133023;27;20015;-77
2023/03/13 09:56:16;;;;;;;10.90;4.63;;;;;;;23.12;26.87;97673.25;5114928;27;20099;-79
2023/03/13 09:58:49;;;;;;;7.45;4.22;;;;;;;22.44;26.95;97656.22;5131990;27;20050;-77
2023/03/13 10:01:16;;;;;;;10.20;4.22;;;;;;;22.93;26.63;97657.19;5101514;27;20471;-79
2023/03/13 10:03:47;;;;;;;15.75;8.65;;;;;;;22.98;26.64;97657.53;5097356;27;20483;-78
2023/03/13 10:06:24;;;;;;;9.80;5.10;;;;;;;23.28;26.40;97657.88;5111502;27;20088;-78
2023/03/13 10:08:51;;;;;;;6.00;3.80;;;;;;;21.87;26.91;97606.06;5120915;27;20027;-78
2023/03/13 10:11:25;;;;;;;5.80;3.80;;;;;;;23.21;25.98;97650.38;5128959;27;20027;-78
2023/03/13 10:13:56;;;;;;;12.45;8.38;;;;;;;23.63;25.58;97641.13;5132957;27;20019;-79
2023/03/13 10:16:36;;;;;;;7.85;3.80;;;;;;;23.94;24.91;97633.00;5114148;27;20027;-77
2023/03/13 10:19:16;;;;;;;18.52;4.05;;;;;;;24.19;24.86;97624.56;5118046;27;20096;-78
2023/03/13 10:21:48;;;;;;;7.07;3.50;;;;;;;23.79;24.88;97597.38;5115054;27;20080;-78
2023/03/13 10:24:32;;;;;;;4.53;3.33;;;;;;;23.02;25.51;97585.22;5114590;27;20077;-79
2023/03/13 10:26:57;;;;;;;6.47;3.67;;;;;;;23.22;26.47;97583.00;5117274;27;20035;-79
2023/03/13 10:29:27;;;;;;;5.55;3.40;;;;;;;22.00;27.24;97557.47;5126569;27;20076;-78
2023/03/13 10:32:01;;;;;;;6.63;3.72;;;;;;;22.51;26.84;97580.94;5097320;27;20027;-79
2023/03/13 10:34:29;;;;;;;14.27;5.80;;;;;;;23.52;25.81;97590.47;5114264;27;20414;-77
2023/03/13 10:36:58;;;;;;;5.82;3.10;;;;;;;24.07;24.63;97595.03;5114127;27;20030;-78
2023/03/13 10:39:27;;;;;;;5.18;2.75;;;;;;;23.99;25.06;97582.28;5131198;27;20031;-79
2023/03/13 10:42:15;;;;;;;4.72;2.83;;;;;;;24.46;24.91;97579.47;5114123;27;20023;-79
2023/03/13 10:44:42;;;;;;;6.32;3.00;;;;;;;24.53;24.98;97565.91;5130765;27;20027;-78
2023/03/13 10:47:11;;;;;;;4.28;2.90;;;;;;;23.03;25.27;97517.84;5114292;27;20034;-77
2023/03/13 10:49:49;;;;;;;7.13;4.03;;;;;;;23.03;25.61;97509.66;5120339;27;20118;-77
2023/03/13 10:52:32;;;;;;;4.95;3.15;;;;;;;22.55;26.38;97513.25;5131328;27;20023;-76
2023/03/13 10:55:05;;;;;;;5.20;3.15;;;;;;;23.20;25.57;97531.28;5131003;27;20043;-77
2023/03/13 10:57:33;;;;;;;9.65;4.25;;;;;;;23.63;25.61;97530.00;5117165;27;20510;-77
2023/03/13 10:59:59;;;;;;;4.28;2.80;;;;;;;23.58;25.69;97524.22;5114252;27;20027;-77
2023/03/13 11:02:35;;;;;;;4.15;2.92;;;;;;;21.59;26.54;97449.41;5119425;27;20031;-76
2023/03/13 11:05:02;;;;;;;4.80;3.15;;;;;;;22.45;26.92;97507.13;5113520;27;20022;-77
2023/03/13 11:07:32;;;;;;;10.45;4.25;;;;;;;23.53;25.68;97514.84;5130710;27;20146;-77
2023/03/13 11:10:05;;;;;;;6.07;3.88;;;;;;;22.96;26.53;97497.75;5130606;27;20451;-77
2023/03/13 11:12:33;;;;;;;4.20;2.65;;;;;;;22.43;26.18;97471.84;5113476;27;20027;-77
2023/03/13 11:15:00;;;;;;;10.57;3.67;;;;;;;23.66;26.07;97501.47;5120559;27;20474;-77
2023/03/13 11:17:32;;;;;;;6.07;3.90;;;;;;;22.44;26.87;97469.97;5122004;27;20107;-77
2023/03/13 11:20:04;;;;;;;7.43;4.05;;;;;;;23.19;26.13;97491.34;5131100;27;20050;-77
2023/03/13 11:22:39;;;;;;;8.07;3.42;;;;;;;22.76;26.11;97463.69;5131481;27;20039;-78